sensor_id;sensor_type;location;lat;lon;timestamp;pressure;altitude;pressure_sealevel;temperature
25514;BMP180;48128;54.242;10.280;2023-04-03T00:01:17;102885.00;;;-1.90
25514;BMP180;48128;54.242;10.280;2023-04-03T00:03:44;102884.00;;;-1.90
25514;BMP180;48128;54.242;10.280;2023-04-03T00:06:11;102896.00;;;-2.00
25514;BMP180;48128;54.242;10.280;2023-04-03T00:08:39;102898.00;;;-2.00
25514;BMP180;48128;54.242;10.280;2023-04-03T00:11:06;102924.00;;;-2.00
25514;BMP180;48128;54.242;10.280;2023-04-03T00:13:33;102905.00;;;-2.00
25514;BMP180;48128;54.242;10.280;2023-04-03T00:16:00;102909.00;;;-2.00
25514;BMP180;48128;54.242;10.280;2023-04-03T00:18:26;102920.00;;;-2.00
25514;BMP180;48128;54.242;10.280;2023-04-03T00:20:53;102917.00;;;-2.00
25514;BMP180;48128;54.242;10.280;2023-04-03T00:23:20;102916.00;;;-2.00
25514;BMP180;48128;54.242;10.280;2023-04-03T00:25:47;102915.00;;;-2.10
25514;BMP180;48128;54.242;10.280;2023-04-03T00:28:14;102924.00;;;-2.10
25514;BMP180;48128;54.242;10.280;2023-04-03T00:30:41;102910.00;;;-2.10
25514;BMP180;48128;54.242;10.280;2023-04-03T00:33:11;102919.00;;;-2.10
25514;BMP180;48128;54.242;10.280;2023-04-03T00:35:38;102919.00;;;-2.10
25514;BMP180;48128;54.242;10.280;2023-04-03T00:38:05;102920.00;;;-2.10
25514;BMP180;48128;54.242;10.280;2023-04-03T00:40:37;102938.00;;;-2.10
25514;BMP180;48128;54.242;10.280;2023-04-03T00:43:14;102942.00;;;-2.10
25514;BMP180;48128;54.242;10.280;2023-04-03T00:45:44;102933.00;;;-2.20
25514;BMP180;48128;54.242;10.280;2023-04-03T00:48:26;102947.00;;;-2.20
25514;BMP180;48128;54.242;10.280;2023-04-03T00:50:54;102933.00;;;-2.20
25514;BMP180;48128;54.242;10.280;2023-04-03T00:53:33;102942.00;;;-2.20
25514;BMP180;48128;54.242;10.280;2023-04-03T00:56:01;102933.00;;;-2.20
25514;BMP180;48128;54.242;10.280;2023-04-03T00:58:39;102940.00;;;-2.20
25514;BMP180;48128;54.242;10.280;2023-04-03T01:01:09;102945.00;;;-2.20
25514;BMP180;48128;54.242;10.280;2023-04-03T01:03:39;102942.00;;;-2.30
25514;BMP180;48128;54.242;10.280;2023-04-03T01:06:06;102941.00;;;-2.30
25514;BMP180;48128;54.242;10.280;2023-04-03T01:08:32;102949.00;;;-2.30
25514;BMP180;48128;54.242;10.280;2023-04-03T01:11:00;102948.00;;;-2.30
25514;BMP180;48128;54.242;10.280;2023-04-03T01:13:32;102958.00;;;-2.30
25514;BMP180;48128;54.242;10.280;2023-04-03T01:16:04;102947.00;;;-2.30
25514;BMP180;48128;54.242;10.280;2023-04-03T01:18:33;102948.00;;;-2.40
25514;BMP180;48128;54.242;10.280;2023-04-03T01:24:36;102955.00;;;-2.40
25514;BMP180;48128;54.242;10.280;2023-04-03T01:27:06;102945.00;;;-2.40
25514;BMP180;48128;54.242;10.280;2023-04-03T01:29:33;102945.00;;;-2.40
25514;BMP180;48128;54.242;10.280;2023-04-03T01:32:01;102940.00;;;-2.40
25514;BMP180;48128;54.242;10.280;2023-04-03T01:34:28;102939.00;;;-2.40
25514;BMP180;48128;54.242;10.280;2023-04-03T01:36:55;102943.00;;;-2.50
25514;BMP180;48128;54.242;10.280;2023-04-03T01:39:22;102943.00;;;-2.50
25514;BMP180;48128;54.242;10.280;2023-04-03T01:41:50;102940.00;;;-2.50
25514;BMP180;48128;54.242;10.280;2023-04-03T01:44:17;102936.00;;;-2.50
25514;BMP180;48128;54.242;10.280;2023-04-03T01:46:43;102935.00;;;-2.50
25514;BMP180;48128;54.242;10.280;2023-04-03T01:49:10;102929.00;;;-2.50
25514;BMP180;48128;54.242;10.280;2023-04-03T01:51:37;102937.00;;;-2.50
25514;BMP180;48128;54.242;10.280;2023-04-03T01:54:04;102942.00;;;-2.60
25514;BMP180;48128;54.242;10.280;2023-04-03T01:56:31;102942.00;;;-2.60
25514;BMP180;48128;54.242;10.280;2023-04-03T01:58:58;102942.00;;;-2.60
25514;BMP180;48128;54.242;10.280;2023-04-03T02:01:25;102949.00;;;-2.60
25514;BMP180;48128;54.242;10.280;2023-04-03T02:03:52;102953.00;;;-2.60
25514;BMP180;48128;54.242;10.280;2023-04-03T02:06:19;102939.00;;;-2.60
25514;BMP180;48128;54.242;10.280;2023-04-03T02:08:46;102949.00;;;-2.70
25514;BMP180;48128;54.242;10.280;2023-04-03T02:11:13;102943.00;;;-2.70
25514;BMP180;48128;54.242;10.280;2023-04-03T02:13:40;102944.00;;;-2.70
25514;BMP180;48128;54.242;10.280;2023-04-03T02:16:09;102946.00;;;-2.70
25514;BMP180;48128;54.242;10.280;2023-04-03T02:18:37;102951.00;;;-2.70
25514;BMP180;48128;54.242;10.280;2023-04-03T02:21:04;102949.00;;;-2.70
25514;BMP180;48128;54.242;10.280;2023-04-03T02:23:30;102955.00;;;-2.80
25514;BMP180;48128;54.242;10.280;2023-04-03T02:26:11;102954.00;;;-2.80
25514;BMP180;48128;54.242;10.280;2023-04-03T02:28:39;102941.00;;;-2.80
25514;BMP180;48128;54.242;10.280;2023-04-03T02:31:07;102952.00;;;-2.80
25514;BMP180;48128;54.242;10.280;2023-04-03T02:33:34;102956.00;;;-2.80
25514;BMP180;48128;54.242;10.280;2023-04-03T02:36:06;102950.00;;;-2.80
25514;BMP180;48128;54.242;10.280;2023-04-03T02:38:33;102950.00;;;-2.80
25514;BMP180;48128;54.242;10.280;2023-04-03T02:41:09;102954.00;;;-2.80
25514;BMP180;48128;54.242;10.280;2023-04-03T02:43:38;102946.00;;;-2.80
25514;BMP180;48128;54.242;10.280;2023-04-03T02:46:05;102947.00;;;-2.90
25514;BMP180;48128;54.242;10.280;2023-04-03T02:48:32;102953.00;;;-2.90
25514;BMP180;48128;54.242;10.280;2023-04-03T02:50:59;102950.00;;;-2.90
25514;BMP180;48128;54.242;10.280;2023-04-03T02:53:26;102950.00;;;-2.90
25514;BMP180;48128;54.242;10.280;2023-04-03T02:55:53;102951.00;;;-2.90
25514;BMP180;48128;54.242;10.280;2023-04-03T02:58:20;102962.00;;;-2.90
25514;BMP180;48128;54.242;10.280;2023-04-03T03:00:47;102954.00;;;-2.90
25514;BMP180;48128;54.242;10.280;2023-04-03T03:03:13;102953.00;;;-2.90
25514;BMP180;48128;54.242;10.280;2023-04-03T03:05:41;102956.00;;;-2.90
25514;BMP180;48128;54.242;10.280;2023-04-03T03:08:08;102946.00;;;-3.00
25514;BMP180;48128;54.242;10.280;2023-04-03T03:10:35;102960.00;;;-3.00
25514;BMP180;48128;54.242;10.280;2023-04-03T03:13:02;102961.00;;;-3.00
25514;BMP180;48128;54.242;10.280;2023-04-03T03:15:28;102956.00;;;-3.00
25514;BMP180;48128;54.242;10.280;2023-04-03T03:17:55;102957.00;;;-3.00
25514;BMP180;48128;54.242;10.280;2023-04-03T03:20:22;102961.00;;;-3.00
25514;BMP180;48128;54.242;10.280;2023-04-03T03:22:49;102961.00;;;-3.00
25514;BMP180;48128;54.242;10.280;2023-04-03T03:25:16;102970.00;;;-3.00
25514;BMP180;48128;54.242;10.280;2023-04-03T03:27:43;102953.00;;;-3.00
25514;BMP180;48128;54.242;10.280;2023-04-03T03:30:10;102955.00;;;-3.10
25514;BMP180;48128;54.242;10.280;2023-04-03T03:32:37;102963.00;;;-3.10
25514;BMP180;48128;54.242;10.280;2023-04-03T03:35:04;102955.00;;;-3.10
25514;BMP180;48128;54.242;10.280;2023-04-03T03:37:31;102962.00;;;-3.10
25514;BMP180;48128;54.242;10.280;2023-04-03T03:39:58;102952.00;;;-3.10
25514;BMP180;48128;54.242;10.280;2023-04-03T03:42:25;102963.00;;;-3.10
25514;BMP180;48128;54.242;10.280;2023-04-03T03:44:52;102956.00;;;-3.10
25514;BMP180;48128;54.242;10.280;2023-04-03T03:47:19;102953.00;;;-3.10
25514;BMP180;48128;54.242;10.280;2023-04-03T03:49:46;102958.00;;;-3.10
25514;BMP180;48128;54.242;10.280;2023-04-03T03:52:13;102959.00;;;-3.10
25514;BMP180;48128;54.242;10.280;2023-04-03T03:54:40;102972.00;;;-3.10
25514;BMP180;48128;54.242;10.280;2023-04-03T03:57:07;102964.00;;;-3.20
25514;BMP180;48128;54.242;10.280;2023-04-03T03:59:34;102965.00;;;-3.20
25514;BMP180;48128;54.242;10.280;2023-04-03T04:02:00;102973.00;;;-3.20
25514;BMP180;48128;54.242;10.280;2023-04-03T04:04:27;102975.00;;;-3.20
25514;BMP180;48128;54.242;10.280;2023-04-03T04:06:54;102968.00;;;-3.20
25514;BMP180;48128;54.242;10.280;2023-04-03T04:09:21;102968.00;;;-3.20
25514;BMP180;48128;54.242;10.280;2023-04-03T04:11:48;102978.00;;;-3.20
25514;BMP180;48128;54.242;10.280;2023-04-03T04:14:15;102982.00;;;-3.20
25514;BMP180;48128;54.242;10.280;2023-04-03T04:16:42;102969.00;;;-3.20
25514;BMP180;48128;54.242;10.280;2023-04-03T04:19:09;102972.00;;;-3.20
25514;BMP180;48128;54.242;10.280;2023-04-03T04:21:36;102973.00;;;-3.30
25514;BMP180;48128;54.242;10.280;2023-04-03T04:24:03;102985.00;;;-3.30
25514;BMP180;48128;54.242;10.280;2023-04-03T04:26:30;102992.00;;;-3.30
25514;BMP180;48128;54.242;10.280;2023-04-03T04:28:57;102996.00;;;-3.30
25514;BMP180;48128;54.242;10.280;2023-04-03T04:31:24;102994.00;;;-3.30
25514;BMP180;48128;54.242;10.280;2023-04-03T04:33:51;103008.00;;;-3.30
25514;BMP180;48128;54.242;10.280;2023-04-03T04:36:18;102987.00;;;-3.30
25514;BMP180;48128;54.242;10.280;2023-04-03T04:38:45;103008.00;;;-3.30
25514;BMP180;48128;54.242;10.280;2023-04-03T04:41:12;103009.00;;;-3.30
25514;BMP180;48128;54.242;10.280;2023-04-03T04:43:39;102996.00;;;-3.30
25514;BMP180;48128;54.242;10.280;2023-04-03T04:46:07;103012.00;;;-3.30
25514;BMP180;48128;54.242;10.280;2023-04-03T04:48:36;103016.00;;;-3.30
25514;BMP180;48128;54.242;10.280;2023-04-03T04:51:03;103020.00;;;-3.30
25514;BMP180;48128;54.242;10.280;2023-04-03T04:53:30;103021.00;;;-3.30
25514;BMP180;48128;54.242;10.280;2023-04-03T04:55:57;103012.00;;;-3.30
25514;BMP180;48128;54.242;10.280;2023-04-03T04:58:24;103018.00;;;-3.30
25514;BMP180;48128;54.242;10.280;2023-04-03T05:00:59;103018.00;;;-3.30
25514;BMP180;48128;54.242;10.280;2023-04-03T05:03:26;103016.00;;;-3.30
25514;BMP180;48128;54.242;10.280;2023-04-03T05:05:53;103019.00;;;-3.40
25514;BMP180;48128;54.242;10.280;2023-04-03T05:08:20;103027.00;;;-3.40
25514;BMP180;48128;54.242;10.280;2023-04-03T05:10:47;103042.00;;;-3.30
25514;BMP180;48128;54.242;10.280;2023-04-03T05:13:14;103029.00;;;-3.30
25514;BMP180;48128;54.242;10.280;2023-04-03T05:15:41;103018.00;;;-3.30
25514;BMP180;48128;54.242;10.280;2023-04-03T05:18:08;103025.00;;;-3.30
25514;BMP180;48128;54.242;10.280;2023-04-03T05:20:35;103032.00;;;-3.30
25514;BMP180;48128;54.242;10.280;2023-04-03T05:23:03;103032.00;;;-3.30
25514;BMP180;48128;54.242;10.280;2023-04-03T05:25:30;103031.00;;;-3.30
25514;BMP180;48128;54.242;10.280;2023-04-03T05:27:57;103037.00;;;-3.30
25514;BMP180;48128;54.242;10.280;2023-04-03T05:30:24;103037.00;;;-3.20
25514;BMP180;48128;54.242;10.280;2023-04-03T05:32:51;103032.00;;;-3.20
25514;BMP180;48128;54.242;10.280;2023-04-03T05:35:18;103035.00;;;-3.10
25514;BMP180;48128;54.242;10.280;2023-04-03T05:37:45;103038.00;;;-3.10
25514;BMP180;48128;54.242;10.280;2023-04-03T05:40:12;103045.00;;;-3.10
25514;BMP180;48128;54.242;10.280;2023-04-03T05:42:39;103044.00;;;-3.00
25514;BMP180;48128;54.242;10.280;2023-04-03T05:45:06;103048.00;;;-3.00
25514;BMP180;48128;54.242;10.280;2023-04-03T05:47:33;103059.00;;;-3.00
25514;BMP180;48128;54.242;10.280;2023-04-03T05:50:00;103060.00;;;-3.00
25514;BMP180;48128;54.242;10.280;2023-04-03T05:52:29;103059.00;;;-3.00
25514;BMP180;48128;54.242;10.280;2023-04-03T05:54:56;103059.00;;;-2.90
25514;BMP180;48128;54.242;10.280;2023-04-03T05:57:24;103059.00;;;-2.90
25514;BMP180;48128;54.242;10.280;2023-04-03T05:59:51;103073.00;;;-2.80
25514;BMP180;48128;54.242;10.280;2023-04-03T06:02:20;103074.00;;;-2.80
25514;BMP180;48128;54.242;10.280;2023-04-03T06:04:47;103066.00;;;-2.70
25514;BMP180;48128;54.242;10.280;2023-04-03T06:07:17;103068.00;;;-2.70
25514;BMP180;48128;54.242;10.280;2023-04-03T06:09:46;103071.00;;;-2.60
25514;BMP180;48128;54.242;10.280;2023-04-03T06:12:13;103072.00;;;-2.60
25514;BMP180;48128;54.242;10.280;2023-04-03T06:14:40;103074.00;;;-2.60
25514;BMP180;48128;54.242;10.280;2023-04-03T06:17:07;103074.00;;;-2.50
25514;BMP180;48128;54.242;10.280;2023-04-03T06:19:35;103068.00;;;-2.50
25514;BMP180;48128;54.242;10.280;2023-04-03T06:22:03;103084.00;;;-2.40
25514;BMP180;48128;54.242;10.280;2023-04-03T06:24:30;103073.00;;;-2.30
25514;BMP180;48128;54.242;10.280;2023-04-03T06:26:58;103087.00;;;-2.20
25514;BMP180;48128;54.242;10.280;2023-04-03T06:29:25;103070.00;;;-2.10
25514;BMP180;48128;54.242;10.280;2023-04-03T06:31:52;103077.00;;;-2.00
25514;BMP180;48128;54.242;10.280;2023-04-03T06:34:19;103080.00;;;-1.90
25514;BMP180;48128;54.242;10.280;2023-04-03T06:36:46;103076.00;;;-1.80
25514;BMP180;48128;54.242;10.280;2023-04-03T06:39:15;103084.00;;;-1.70
25514;BMP180;48128;54.242;10.280;2023-04-03T06:41:43;103073.00;;;-1.60
25514;BMP180;48128;54.242;10.280;2023-04-03T06:44:10;103079.00;;;-1.50
25514;BMP180;48128;54.242;10.280;2023-04-03T06:46:38;103082.00;;;-1.40
25514;BMP180;48128;54.242;10.280;2023-04-03T06:49:05;103073.00;;;-1.30
25514;BMP180;48128;54.242;10.280;2023-04-03T06:51:35;103093.00;;;-1.20
25514;BMP180;48128;54.242;10.280;2023-04-03T06:54:03;103099.00;;;-1.10
25514;BMP180;48128;54.242;10.280;2023-04-03T06:56:30;103086.00;;;-0.90
25514;BMP180;48128;54.242;10.280;2023-04-03T06:58:57;103080.00;;;-0.80
25514;BMP180;48128;54.242;10.280;2023-04-03T07:01:28;103096.00;;;-0.50
25514;BMP180;48128;54.242;10.280;2023-04-03T07:03:55;103104.00;;;-0.40
25514;BMP180;48128;54.242;10.280;2023-04-03T07:06:22;103093.00;;;-0.20
25514;BMP180;48128;54.242;10.280;2023-04-03T07:08:49;103095.00;;;-0.10
25514;BMP180;48128;54.242;10.280;2023-04-03T07:11:17;103104.00;;;0.10
25514;BMP180;48128;54.242;10.280;2023-04-03T07:13:43;103097.00;;;0.20
25514;BMP180;48128;54.242;10.280;2023-04-03T07:16:11;103114.00;;;0.40
25514;BMP180;48128;54.242;10.280;2023-04-03T07:18:39;103097.00;;;0.60
25514;BMP180;48128;54.242;10.280;2023-04-03T07:21:05;103106.00;;;0.70
25514;BMP180;48128;54.242;10.280;2023-04-03T07:23:32;103116.00;;;0.90
25514;BMP180;48128;54.242;10.280;2023-04-03T07:25:59;103116.00;;;1.00
25514;BMP180;48128;54.242;10.280;2023-04-03T07:28:26;103127.00;;;1.10
25514;BMP180;48128;54.242;10.280;2023-04-03T07:30:59;103125.00;;;1.30
25514;BMP180;48128;54.242;10.280;2023-04-03T07:33:27;103134.00;;;1.40
25514;BMP180;48128;54.242;10.280;2023-04-03T07:35:54;103155.00;;;1.60
25514;BMP180;48128;54.242;10.280;2023-04-03T07:38:21;103170.00;;;1.70
25514;BMP180;48128;54.242;10.280;2023-04-03T07:40:49;103163.00;;;1.90
25514;BMP180;48128;54.242;10.280;2023-04-03T07:43:17;103171.00;;;2.00
25514;BMP180;48128;54.242;10.280;2023-04-03T07:45:44;103184.00;;;2.20
25514;BMP180;48128;54.242;10.280;2023-04-03T07:48:12;103180.00;;;2.40
25514;BMP180;48128;54.242;10.280;2023-04-03T07:50:43;103204.00;;;2.60
25514;BMP180;48128;54.242;10.280;2023-04-03T07:53:10;103216.00;;;2.70
25514;BMP180;48128;54.242;10.280;2023-04-03T07:55:37;103220.00;;;2.90
25514;BMP180;48128;54.242;10.280;2023-04-03T07:58:15;103231.00;;;3.00
25514;BMP180;48128;54.242;10.280;2023-04-03T08:00:42;103242.00;;;3.10
25514;BMP180;48128;54.242;10.280;2023-04-03T08:03:10;103243.00;;;3.20
25514;BMP180;48128;54.242;10.280;2023-04-03T08:05:40;103256.00;;;3.40
25514;BMP180;48128;54.242;10.280;2023-04-03T08:08:07;103241.00;;;3.50
25514;BMP180;48128;54.242;10.280;2023-04-03T08:10:34;103251.00;;;3.60
25514;BMP180;48128;54.242;10.280;2023-04-03T08:13:02;103267.00;;;3.70
25514;BMP180;48128;54.242;10.280;2023-04-03T08:15:30;103252.00;;;3.80
25514;BMP180;48128;54.242;10.280;2023-04-03T14:35:15;103118.00;;;7.60
25514;BMP180;48128;54.242;10.280;2023-04-03T14:37:43;103121.00;;;7.70
25514;BMP180;48128;54.242;10.280;2023-04-03T14:40:16;103129.00;;;7.60
25514;BMP180;48128;54.242;10.280;2023-04-03T14:42:43;103134.00;;;7.60
25514;BMP180;48128;54.242;10.280;2023-04-03T14:45:11;103101.00;;;7.70
25514;BMP180;48128;54.242;10.280;2023-04-03T14:47:53;103121.00;;;7.70
25514;BMP180;48128;54.242;10.280;2023-04-03T14:50:23;103119.00;;;7.90
25514;BMP180;48128;54.242;10.280;2023-04-03T14:52:52;103112.00;;;7.90
25514;BMP180;48128;54.242;10.280;2023-04-03T14:55:21;103104.00;;;7.90
25514;BMP180;48128;54.242;10.280;2023-04-03T14:57:48;103105.00;;;7.70
25514;BMP180;48128;54.242;10.280;2023-04-03T15:00:17;103118.00;;;7.50
25514;BMP180;48128;54.242;10.280;2023-04-03T15:02:45;103111.00;;;7.30
25514;BMP180;48128;54.242;10.280;2023-04-03T15:05:13;103108.00;;;7.20
25514;BMP180;48128;54.242;10.280;2023-04-03T15:07:49;103103.00;;;7.10
25514;BMP180;48128;54.242;10.280;2023-04-03T15:10:27;103119.00;;;7.00
25514;BMP180;48128;54.242;10.280;2023-04-03T15:12:55;103068.00;;;7.20
25514;BMP180;48128;54.242;10.280;2023-04-03T15:15:23;103070.00;;;7.30
25514;BMP180;48128;54.242;10.280;2023-04-03T15:17:52;103089.00;;;7.40
25514;BMP180;48128;54.242;10.280;2023-04-03T15:20:25;103102.00;;;7.50
25514;BMP180;48128;54.242;10.280;2023-04-03T15:22:55;103103.00;;;7.50
25514;BMP180;48128;54.242;10.280;2023-04-03T15:25:27;103069.00;;;7.70
25514;BMP180;48128;54.242;10.280;2023-04-03T15:27:55;103107.00;;;7.50
25514;BMP180;48128;54.242;10.280;2023-04-03T15:30:23;103105.00;;;7.20
25514;BMP180;48128;54.242;10.280;2023-04-03T15:32:50;103096.00;;;7.10
25514;BMP180;48128;54.242;10.280;2023-04-03T15:35:17;103104.00;;;6.90
25514;BMP180;48128;54.242;10.280;2023-04-03T15:37:44;103089.00;;;6.80
25514;BMP180;48128;54.242;10.280;2023-04-03T15:40:11;103087.00;;;6.50
25514;BMP180;48128;54.242;10.280;2023-04-03T15:42:38;103083.00;;;6.40
25514;BMP180;48128;54.242;10.280;2023-04-03T15:45:06;103088.00;;;6.30
25514;BMP180;48128;54.242;10.280;2023-04-03T15:47:33;103076.00;;;6.40
25514;BMP180;48128;54.242;10.280;2023-04-03T15:50:01;103078.00;;;6.30
25514;BMP180;48128;54.242;10.280;2023-04-03T15:52:28;103069.00;;;6.30
25514;BMP180;48128;54.242;10.280;2023-04-03T15:54:55;103070.00;;;6.20
25514;BMP180;48128;54.242;10.280;2023-04-03T15:57:22;103066.00;;;6.20
25514;BMP180;48128;54.242;10.280;2023-04-03T15:59:52;103061.00;;;6.10
25514;BMP180;48128;54.242;10.280;2023-04-03T16:02:19;103062.00;;;6.00
25514;BMP180;48128;54.242;10.280;2023-04-03T16:04:47;103053.00;;;5.90
25514;BMP180;48128;54.242;10.280;2023-04-03T16:07:14;103044.00;;;5.80
25514;BMP180;48128;54.242;10.280;2023-04-03T16:09:41;103047.00;;;5.70
25514;BMP180;48128;54.242;10.280;2023-04-03T16:12:08;103046.00;;;5.70
25514;BMP180;48128;54.242;10.280;2023-04-03T16:14:35;103053.00;;;5.60
25514;BMP180;48128;54.242;10.280;2023-04-03T16:17:02;103032.00;;;5.50
25514;BMP180;48128;54.242;10.280;2023-04-03T16:19:29;103046.00;;;5.40
25514;BMP180;48128;54.242;10.280;2023-04-03T16:21:57;103019.00;;;5.40
25514;BMP180;48128;54.242;10.280;2023-04-03T16:24:23;103044.00;;;5.30
25514;BMP180;48128;54.242;10.280;2023-04-03T16:26:50;103033.00;;;5.20
25514;BMP180;48128;54.242;10.280;2023-04-03T16:29:17;103048.00;;;5.20
25514;BMP180;48128;54.242;10.280;2023-04-03T16:31:44;103054.00;;;5.10
25514;BMP180;48128;54.242;10.280;2023-04-03T16:34:11;103014.00;;;5.10
25514;BMP180;48128;54.242;10.280;2023-04-03T16:36:38;103041.00;;;5.10
25514;BMP180;48128;54.242;10.280;2023-04-03T16:39:05;103028.00;;;5.00
25514;BMP180;48128;54.242;10.280;2023-04-03T16:41:32;103015.00;;;5.00
25514;BMP180;48128;54.242;10.280;2023-04-03T16:43:59;103036.00;;;4.90
25514;BMP180;48128;54.242;10.280;2023-04-03T16:46:26;103034.00;;;4.80
25514;BMP180;48128;54.242;10.280;2023-04-03T16:48:53;103016.00;;;4.80
25514;BMP180;48128;54.242;10.280;2023-04-03T16:51:20;103011.00;;;4.70
25514;BMP180;48128;54.242;10.280;2023-04-03T16:53:47;103016.00;;;4.70
25514;BMP180;48128;54.242;10.280;2023-04-03T16:56:14;103004.00;;;4.60
25514;BMP180;48128;54.242;10.280;2023-04-03T16:58:41;102999.00;;;4.60
25514;BMP180;48128;54.242;10.280;2023-04-03T17:01:12;102997.00;;;4.60
25514;BMP180;48128;54.242;10.280;2023-04-03T17:03:39;103015.00;;;4.50
25514;BMP180;48128;54.242;10.280;2023-04-03T17:06:07;103018.00;;;4.50
25514;BMP180;48128;54.242;10.280;2023-04-03T17:08:34;103014.00;;;4.50
25514;BMP180;48128;54.242;10.280;2023-04-03T17:11:01;103020.00;;;4.40
25514;BMP180;48128;54.242;10.280;2023-04-03T17:13:28;103015.00;;;4.40
25514;BMP180;48128;54.242;10.280;2023-04-03T17:15:58;103013.00;;;4.30
25514;BMP180;48128;54.242;10.280;2023-04-03T17:18:26;103010.00;;;4.30
25514;BMP180;48128;54.242;10.280;2023-04-03T17:20:53;102999.00;;;4.20
25514;BMP180;48128;54.242;10.280;2023-04-03T17:23:23;102999.00;;;4.10
25514;BMP180;48128;54.242;10.280;2023-04-03T17:25:50;103000.00;;;4.10
25514;BMP180;48128;54.242;10.280;2023-04-03T17:28:17;103006.00;;;4.00
25514;BMP180;48128;54.242;10.280;2023-04-03T17:30:44;103001.00;;;4.00
25514;BMP180;48128;54.242;10.280;2023-04-03T17:33:11;102993.00;;;3.90
25514;BMP180;48128;54.242;10.280;2023-04-03T17:35:37;102991.00;;;3.80
25514;BMP180;48128;54.242;10.280;2023-04-03T17:38:05;103002.00;;;3.80
25514;BMP180;48128;54.242;10.280;2023-04-03T17:40:32;102982.00;;;3.70
25514;BMP180;48128;54.242;10.280;2023-04-03T17:42:58;102994.00;;;3.60
25514;BMP180;48128;54.242;10.280;2023-04-03T17:45:25;102980.00;;;3.50
25514;BMP180;48128;54.242;10.280;2023-04-03T17:47:52;102975.00;;;3.50
25514;BMP180;48128;54.242;10.280;2023-04-03T17:50:20;102979.00;;;3.40
25514;BMP180;48128;54.242;10.280;2023-04-03T17:52:47;102967.00;;;3.30
25514;BMP180;48128;54.242;10.280;2023-04-03T17:55:14;102954.00;;;3.20
25514;BMP180;48128;54.242;10.280;2023-04-03T17:57:41;102954.00;;;3.10
25514;BMP180;48128;54.242;10.280;2023-04-03T18:00:08;102971.00;;;3.00
25514;BMP180;48128;54.242;10.280;2023-04-03T18:02:36;102966.00;;;2.90
25514;BMP180;48128;54.242;10.280;2023-04-03T18:05:03;102956.00;;;2.80
25514;BMP180;48128;54.242;10.280;2023-04-03T18:07:30;102952.00;;;2.70
25514;BMP180;48128;54.242;10.280;2023-04-03T18:09:57;102963.00;;;2.60
25514;BMP180;48128;54.242;10.280;2023-04-03T18:12:25;102962.00;;;2.50
25514;BMP180;48128;54.242;10.280;2023-04-03T18:14:52;102957.00;;;2.50
25514;BMP180;48128;54.242;10.280;2023-04-03T18:17:19;102949.00;;;2.40
25514;BMP180;48128;54.242;10.280;2023-04-03T18:19:46;102950.00;;;2.30
25514;BMP180;48128;54.242;10.280;2023-04-03T18:22:15;102918.00;;;2.20
25514;BMP180;48128;54.242;10.280;2023-04-03T18:24:42;102902.00;;;2.10
25514;BMP180;48128;54.242;10.280;2023-04-03T18:27:12;102921.00;;;2.00
25514;BMP180;48128;54.242;10.280;2023-04-03T18:29:41;102917.00;;;1.90
25514;BMP180;48128;54.242;10.280;2023-04-03T18:32:11;102932.00;;;1.80
25514;BMP180;48128;54.242;10.280;2023-04-03T18:34:38;102926.00;;;1.70
25514;BMP180;48128;54.242;10.280;2023-04-03T18:37:05;102938.00;;;1.70
25514;BMP180;48128;54.242;10.280;2023-04-03T18:39:32;102929.00;;;1.60
25514;BMP180;48128;54.242;10.280;2023-04-03T18:42:07;102918.00;;;1.60
25514;BMP180;48128;54.242;10.280;2023-04-03T18:44:35;102917.00;;;1.50
25514;BMP180;48128;54.242;10.280;2023-04-03T18:47:03;102921.00;;;1.40
25514;BMP180;48128;54.242;10.280;2023-04-03T18:49:30;102925.00;;;1.40
25514;BMP180;48128;54.242;10.280;2023-04-03T18:51:58;102924.00;;;1.40
25514;BMP180;48128;54.242;10.280;2023-04-03T18:54:25;102929.00;;;1.30
25514;BMP180;48128;54.242;10.280;2023-04-03T18:56:52;102939.00;;;1.30
25514;BMP180;48128;54.242;10.280;2023-04-03T18:59:19;102925.00;;;1.20
25514;BMP180;48128;54.242;10.280;2023-04-03T19:01:46;102923.00;;;1.20
25514;BMP180;48128;54.242;10.280;2023-04-03T19:04:12;102908.00;;;1.10
25514;BMP180;48128;54.242;10.280;2023-04-03T19:06:40;102917.00;;;1.10
25514;BMP180;48128;54.242;10.280;2023-04-03T19:09:07;102906.00;;;1.00
25514;BMP180;48128;54.242;10.280;2023-04-03T19:11:34;102918.00;;;1.00
25514;BMP180;48128;54.242;10.280;2023-04-03T19:14:02;102915.00;;;0.90
25514;BMP180;48128;54.242;10.280;2023-04-03T19:16:42;102911.00;;;0.90
25514;BMP180;48128;54.242;10.280;2023-04-03T19:19:09;102905.00;;;0.80
25514;BMP180;48128;54.242;10.280;2023-04-03T19:21:36;102906.00;;;0.70
25514;BMP180;48128;54.242;10.280;2023-04-03T19:24:09;102896.00;;;0.70
25514;BMP180;48128;54.242;10.280;2023-04-03T19:26:37;102877.00;;;0.70
25514;BMP180;48128;54.242;10.280;2023-04-03T19:29:04;102882.00;;;0.60
25514;BMP180;48128;54.242;10.280;2023-04-03T19:31:31;102888.00;;;0.50
25514;BMP180;48128;54.242;10.280;2023-04-03T19:33:59;102875.00;;;0.50
25514;BMP180;48128;54.242;10.280;2023-04-03T19:36:26;102879.00;;;0.50
25514;BMP180;48128;54.242;10.280;2023-04-03T19:38:53;102875.00;;;0.40
25514;BMP180;48128;54.242;10.280;2023-04-03T19:41:21;102878.00;;;0.40
25514;BMP180;48128;54.242;10.280;2023-04-03T19:43:51;102895.00;;;0.50
25514;BMP180;48128;54.242;10.280;2023-04-03T19:46:21;102867.00;;;0.40
25514;BMP180;48128;54.242;10.280;2023-04-03T19:48:48;102881.00;;;0.40
25514;BMP180;48128;54.242;10.280;2023-04-03T19:51:15;102874.00;;;0.40
25514;BMP180;48128;54.242;10.280;2023-04-03T19:53:42;102870.00;;;0.40
25514;BMP180;48128;54.242;10.280;2023-04-03T19:56:09;102866.00;;;0.40
25514;BMP180;48128;54.242;10.280;2023-04-03T19:58:36;102867.00;;;0.40
25514;BMP180;48128;54.242;10.280;2023-04-03T20:01:05;102872.00;;;0.40
25514;BMP180;48128;54.242;10.280;2023-04-03T20:03:31;102865.00;;;0.40
25514;BMP180;48128;54.242;10.280;2023-04-03T20:06:00;102869.00;;;0.40
25514;BMP180;48128;54.242;10.280;2023-04-03T20:08:29;102865.00;;;0.30
25514;BMP180;48128;54.242;10.280;2023-04-03T20:10:56;102849.00;;;0.30
25514;BMP180;48128;54.242;10.280;2023-04-03T20:13:23;102863.00;;;0.20
25514;BMP180;48128;54.242;10.280;2023-04-03T20:15:50;102855.00;;;0.10